sensor_id;sensor_type;location;lat;lon;timestamp;P1;durP1;ratioP1;P2;durP2;ratioP2
2840;SDS011;53423;49.224;12.074;2023-05-09T00:00:38;6.60;;;6.10;;
2840;SDS011;53423;49.224;12.074;2023-05-09T00:03:06;6.60;;;6.10;;
2840;SDS011;53423;49.224;12.074;2023-05-09T00:05:35;7.07;;;6.47;;
2840;SDS011;53423;49.224;12.074;2023-05-09T00:08:03;7.63;;;6.63;;
2840;SDS011;53423;49.224;12.074;2023-05-09T00:10:31;7.17;;;6.57;;
2840;SDS011;53423;49.224;12.074;2023-05-09T00:12:59;6.87;;;6.37;;
2840;SDS011;53423;49.224;12.074;2023-05-09T00:15:27;7.40;;;6.80;;
2840;SDS011;53423;49.224;12.074;2023-05-09T00:17:55;7.53;;;6.93;;
2840;SDS011;53423;49.224;12.074;2023-05-09T00:20:23;6.83;;;6.33;;
2840;SDS011;53423;49.224;12.074;2023-05-09T00:22:53;7.40;;;6.77;;
2840;SDS011;53423;49.224;12.074;2023-05-09T00:25:21;7.33;;;6.67;;
2840;SDS011;53423;49.224;12.074;2023-05-09T00:27:49;7.67;;;6.97;;
2840;SDS011;53423;49.224;12.074;2023-05-09T00:30:17;7.90;;;7.20;;
2840;SDS011;53423;49.224;12.074;2023-05-09T00:32:45;7.70;;;7.00;;
2840;SDS011;53423;49.224;12.074;2023-05-09T00:35:13;7.23;;;6.63;;
2840;SDS011;53423;49.224;12.074;2023-05-09T00:37:41;7.17;;;6.57;;
2840;SDS011;53423;49.224;12.074;2023-05-09T00:40:11;7.00;;;6.40;;
2840;SDS011;53423;49.224;12.074;2023-05-09T00:42:39;7.60;;;7.00;;
2840;SDS011;53423;49.224;12.074;2023-05-09T00:45:08;7.73;;;7.10;;
2840;SDS011;53423;49.224;12.074;2023-05-09T00:47:36;7.57;;;6.97;;
2840;SDS011;53423;49.224;12.074;2023-05-09T00:50:05;7.33;;;6.77;;
2840;SDS011;53423;49.224;12.074;2023-05-09T00:52:33;7.90;;;7.27;;
2840;SDS011;53423;49.224;12.074;2023-05-09T00:55:02;7.80;;;7.17;;
2840;SDS011;53423;49.224;12.074;2023-05-09T00:57:35;7.20;;;6.60;;
2840;SDS011;53423;49.224;12.074;2023-05-09T01:00:04;8.00;;;7.30;;
2840;SDS011;53423;49.224;12.074;2023-05-09T01:02:38;7.80;;;7.20;;
2840;SDS011;53423;49.224;12.074;2023-05-09T01:05:07;6.90;;;6.40;;
2840;SDS011;53423;49.224;12.074;2023-05-09T01:07:37;7.70;;;7.10;;
2840;SDS011;53423;49.224;12.074;2023-05-09T01:10:10;8.00;;;7.30;;
2840;SDS011;53423;49.224;12.074;2023-05-09T01:12:51;7.57;;;6.97;;
2840;SDS011;53423;49.224;12.074;2023-05-09T01:15:23;7.43;;;6.90;;
2840;SDS011;53423;49.224;12.074;2023-05-09T01:17:57;7.63;;;7.00;;
2840;SDS011;53423;49.224;12.074;2023-05-09T01:20:29;7.63;;;7.03;;
2840;SDS011;53423;49.224;12.074;2023-05-09T01:23:04;7.77;;;7.17;;
2840;SDS011;53423;49.224;12.074;2023-05-09T01:25:54;7.60;;;7.00;;
2840;SDS011;53423;49.224;12.074;2023-05-09T01:28:42;7.87;;;7.17;;
2840;SDS011;53423;49.224;12.074;2023-05-09T01:31:26;7.13;;;6.53;;
2840;SDS011;53423;49.224;12.074;2023-05-09T01:33:55;7.97;;;7.27;;
2840;SDS011;53423;49.224;12.074;2023-05-09T01:36:26;7.70;;;7.00;;
2840;SDS011;53423;49.224;12.074;2023-05-09T01:38:58;7.07;;;6.50;;
2840;SDS011;53423;49.224;12.074;2023-05-09T01:41:30;7.83;;;7.13;;
2840;SDS011;53423;49.224;12.074;2023-05-09T01:44:01;8.07;;;7.47;;
2840;SDS011;53423;49.224;12.074;2023-05-09T01:46:33;7.50;;;6.90;;
2840;SDS011;53423;49.224;12.074;2023-05-09T01:49:02;7.67;;;7.07;;
2840;SDS011;53423;49.224;12.074;2023-05-09T01:51:31;8.03;;;7.40;;
2840;SDS011;53423;49.224;12.074;2023-05-09T01:54:01;7.70;;;7.10;;
2840;SDS011;53423;49.224;12.074;2023-05-09T01:56:30;7.30;;;6.80;;
2840;SDS011;53423;49.224;12.074;2023-05-09T01:58:58;7.80;;;7.20;;
2840;SDS011;53423;49.224;12.074;2023-05-09T02:01:29;8.07;;;7.37;;
2840;SDS011;53423;49.224;12.074;2023-05-09T02:03:59;8.10;;;7.40;;
2840;SDS011;53423;49.224;12.074;2023-05-09T02:06:30;8.30;;;7.60;;
2840;SDS011;53423;49.224;12.074;2023-05-09T02:08:58;8.20;;;7.60;;
2840;SDS011;53423;49.224;12.074;2023-05-09T02:11:28;7.60;;;7.00;;
2840;SDS011;53423;49.224;12.074;2023-05-09T02:13:56;8.90;;;8.00;;
2840;SDS011;53423;49.224;12.074;2023-05-09T02:16:24;8.37;;;7.57;;
2840;SDS011;53423;49.224;12.074;2023-05-09T02:18:53;8.47;;;7.77;;
2840;SDS011;53423;49.224;12.074;2023-05-09T02:21:22;8.83;;;8.03;;
2840;SDS011;53423;49.224;12.074;2023-05-09T02:23:51;8.87;;;8.03;;
2840;SDS011;53423;49.224;12.074;2023-05-09T02:26:20;8.13;;;7.43;;
2840;SDS011;53423;49.224;12.074;2023-05-09T02:28:48;8.07;;;7.43;;
2840;SDS011;53423;49.224;12.074;2023-05-09T02:31:17;7.90;;;7.30;;
2840;SDS011;53423;49.224;12.074;2023-05-09T02:33:47;8.50;;;7.80;;
2840;SDS011;53423;49.224;12.074;2023-05-09T02:36:16;8.07;;;7.37;;
2840;SDS011;53423;49.224;12.074;2023-05-09T02:38:46;8.10;;;7.50;;
2840;SDS011;53423;49.224;12.074;2023-05-09T02:41:15;9.00;;;8.20;;
2840;SDS011;53423;49.224;12.074;2023-05-09T02:43:44;8.60;;;7.90;;
2840;SDS011;53423;49.224;12.074;2023-05-09T02:46:11;8.30;;;7.60;;
2840;SDS011;53423;49.224;12.074;2023-05-09T02:48:39;8.17;;;7.53;;
2840;SDS011;53423;49.224;12.074;2023-05-09T02:51:07;9.30;;;8.40;;
2840;SDS011;53423;49.224;12.074;2023-05-09T02:53:35;9.60;;;8.80;;
2840;SDS011;53423;49.224;12.074;2023-05-09T02:56:05;9.07;;;8.27;;
2840;SDS011;53423;49.224;12.074;2023-05-09T02:58:34;9.43;;;8.57;;
2840;SDS011;53423;49.224;12.074;2023-05-09T03:01:02;8.80;;;8.07;;
2840;SDS011;53423;49.224;12.074;2023-05-09T03:03:30;8.83;;;8.13;;
2840;SDS011;53423;49.224;12.074;2023-05-09T03:06:00;8.57;;;7.77;;
2840;SDS011;53423;49.224;12.074;2023-05-09T03:08:27;9.43;;;8.57;;
2840;SDS011;53423;49.224;12.074;2023-05-09T03:10:56;9.33;;;8.50;;
2840;SDS011;53423;49.224;12.074;2023-05-09T03:13:25;9.40;;;8.50;;
2840;SDS011;53423;49.224;12.074;2023-05-09T03:15:53;8.83;;;8.00;;
2840;SDS011;53423;49.224;12.074;2023-05-09T03:18:21;8.83;;;8.07;;
2840;SDS011;53423;49.224;12.074;2023-05-09T03:20:49;8.50;;;7.80;;
2840;SDS011;53423;49.224;12.074;2023-05-09T03:23:17;9.30;;;8.50;;
2840;SDS011;53423;49.224;12.074;2023-05-09T03:25:44;8.37;;;7.57;;
2840;SDS011;53423;49.224;12.074;2023-05-09T03:28:12;9.23;;;8.47;;
2840;SDS011;53423;49.224;12.074;2023-05-09T03:30:42;8.43;;;7.70;;
2840;SDS011;53423;49.224;12.074;2023-05-09T03:33:09;8.13;;;7.50;;
2840;SDS011;53423;49.224;12.074;2023-05-09T03:35:37;7.77;;;7.13;;
2840;SDS011;53423;49.224;12.074;2023-05-09T03:38:05;7.87;;;7.27;;
2840;SDS011;53423;49.224;12.074;2023-05-09T03:40:33;6.70;;;6.17;;
2840;SDS011;53423;49.224;12.074;2023-05-09T03:43:01;7.10;;;6.47;;
2840;SDS011;53423;49.224;12.074;2023-05-09T03:45:29;6.90;;;6.40;;
2840;SDS011;53423;49.224;12.074;2023-05-09T03:47:58;6.60;;;6.10;;
2840;SDS011;53423;49.224;12.074;2023-05-09T03:50:26;6.80;;;6.07;;
2840;SDS011;53423;49.224;12.074;2023-05-09T03:52:54;6.60;;;6.10;;
2840;SDS011;53423;49.224;12.074;2023-05-09T03:55:22;6.17;;;5.70;;
2840;SDS011;53423;49.224;12.074;2023-05-09T03:57:50;6.40;;;5.77;;
2840;SDS011;53423;49.224;12.074;2023-05-09T04:00:18;6.60;;;6.00;;
2840;SDS011;53423;49.224;12.074;2023-05-09T04:02:47;6.57;;;6.07;;
2840;SDS011;53423;49.224;12.074;2023-05-09T04:05:16;7.03;;;6.33;;
2840;SDS011;53423;49.224;12.074;2023-05-09T04:07:45;6.20;;;5.70;;
2840;SDS011;53423;49.224;12.074;2023-05-09T04:10:12;7.13;;;6.53;;
2840;SDS011;53423;49.224;12.074;2023-05-09T04:12:40;6.37;;;5.83;;
2840;SDS011;53423;49.224;12.074;2023-05-09T04:15:09;6.87;;;6.27;;
2840;SDS011;53423;49.224;12.074;2023-05-09T04:17:37;6.43;;;5.83;;
2840;SDS011;53423;49.224;12.074;2023-05-09T04:20:05;7.47;;;6.37;;
2840;SDS011;53423;49.224;12.074;2023-05-09T04:22:37;7.10;;;6.50;;
2840;SDS011;53423;49.224;12.074;2023-05-09T04:25:05;6.70;;;6.10;;
2840;SDS011;53423;49.224;12.074;2023-05-09T04:27:38;7.13;;;6.47;;
2840;SDS011;53423;49.224;12.074;2023-05-09T04:30:06;6.13;;;5.63;;
2840;SDS011;53423;49.224;12.074;2023-05-09T04:32:35;6.37;;;5.87;;
2840;SDS011;53423;49.224;12.074;2023-05-09T04:35:04;6.27;;;5.77;;
2840;SDS011;53423;49.224;12.074;2023-05-09T04:37:33;6.60;;;6.00;;
2840;SDS011;53423;49.224;12.074;2023-05-09T04:40:03;6.27;;;5.77;;
2840;SDS011;53423;49.224;12.074;2023-05-09T04:42:32;5.80;;;5.30;;
2840;SDS011;53423;49.224;12.074;2023-05-09T04:45:01;5.87;;;5.37;;
2840;SDS011;53423;49.224;12.074;2023-05-09T04:47:29;6.00;;;5.37;;
2840;SDS011;53423;49.224;12.074;2023-05-09T04:49:57;6.07;;;5.50;;
2840;SDS011;53423;49.224;12.074;2023-05-09T04:52:25;5.90;;;5.50;;
2840;SDS011;53423;49.224;12.074;2023-05-09T04:54:53;6.60;;;6.00;;
2840;SDS011;53423;49.224;12.074;2023-05-09T04:57:22;6.73;;;6.10;;
2840;SDS011;53423;49.224;12.074;2023-05-09T04:59:50;6.33;;;5.70;;
2840;SDS011;53423;49.224;12.074;2023-05-09T05:02:18;6.27;;;5.43;;
2840;SDS011;53423;49.224;12.074;2023-05-09T05:04:46;6.23;;;5.63;;
2840;SDS011;53423;49.224;12.074;2023-05-09T05:07:14;6.60;;;6.03;;
2840;SDS011;53423;49.224;12.074;2023-05-09T05:09:42;5.97;;;5.57;;
2840;SDS011;53423;49.224;12.074;2023-05-09T05:12:10;6.03;;;5.53;;
2840;SDS011;53423;49.224;12.074;2023-05-09T05:14:39;5.80;;;5.33;;
2840;SDS011;53423;49.224;12.074;2023-05-09T05:17:07;5.77;;;5.37;;
2840;SDS011;53423;49.224;12.074;2023-05-09T05:19:35;4.83;;;4.43;;
2840;SDS011;53423;49.224;12.074;2023-05-09T05:22:03;5.80;;;5.30;;
2840;SDS011;53423;49.224;12.074;2023-05-09T05:24:31;5.90;;;5.33;;
2840;SDS011;53423;49.224;12.074;2023-05-09T05:26:59;5.30;;;4.80;;
2840;SDS011;53423;49.224;12.074;2023-05-09T05:29:26;5.30;;;4.80;;
2840;SDS011;53423;49.224;12.074;2023-05-09T05:31:56;4.83;;;4.43;;
2840;SDS011;53423;49.224;12.074;2023-05-09T05:34:24;4.90;;;4.50;;
2840;SDS011;53423;49.224;12.074;2023-05-09T05:36:51;5.00;;;4.60;;
2840;SDS011;53423;49.224;12.074;2023-05-09T05:39:19;5.50;;;4.33;;
2840;SDS011;53423;49.224;12.074;2023-05-09T05:41:47;5.07;;;4.57;;
2840;SDS011;53423;49.224;12.074;2023-05-09T05:44:17;4.97;;;4.57;;
2840;SDS011;53423;49.224;12.074;2023-05-09T05:46:45;4.73;;;4.40;;
2840;SDS011;53423;49.224;12.074;2023-05-09T05:49:14;4.60;;;4.20;;
2840;SDS011;53423;49.224;12.074;2023-05-09T05:51:42;5.93;;;4.80;;
2840;SDS011;53423;49.224;12.074;2023-05-09T05:54:10;4.83;;;4.43;;
2840;SDS011;53423;49.224;12.074;2023-05-09T05:56:38;4.87;;;4.27;;
2840;SDS011;53423;49.224;12.074;2023-05-09T05:59:05;5.07;;;4.40;;
2840;SDS011;53423;49.224;12.074;2023-05-09T06:01:33;5.10;;;3.93;;
2840;SDS011;53423;49.224;12.074;2023-05-09T06:04:01;4.27;;;3.97;;
2840;SDS011;53423;49.224;12.074;2023-05-09T06:06:31;4.60;;;4.20;;
2840;SDS011;53423;49.224;12.074;2023-05-09T06:08:59;4.07;;;3.77;;
2840;SDS011;53423;49.224;12.074;2023-05-09T06:11:27;4.80;;;4.17;;
2840;SDS011;53423;49.224;12.074;2023-05-09T06:13:55;5.27;;;3.80;;
2840;SDS011;53423;49.224;12.074;2023-05-09T06:16:23;4.80;;;4.13;;
2840;SDS011;53423;49.224;12.074;2023-05-09T06:18:51;5.07;;;4.07;;
2840;SDS011;53423;49.224;12.074;2023-05-09T06:21:21;4.97;;;4.50;;
2840;SDS011;53423;49.224;12.074;2023-05-09T06:23:50;4.57;;;4.10;;
2840;SDS011;53423;49.224;12.074;2023-05-09T06:26:21;4.17;;;3.87;;
2840;SDS011;53423;49.224;12.074;2023-05-09T06:28:49;4.60;;;4.20;;
2840;SDS011;53423;49.224;12.074;2023-05-09T06:31:17;4.57;;;4.10;;
2840;SDS011;53423;49.224;12.074;2023-05-09T06:33:45;3.97;;;3.58;;
2840;SDS011;53423;49.224;12.074;2023-05-09T06:36:13;4.00;;;3.60;;
2840;SDS011;53423;49.224;12.074;2023-05-09T06:38:41;4.20;;;3.90;;
2840;SDS011;53423;49.224;12.074;2023-05-09T06:41:10;4.57;;;3.72;;
2840;SDS011;53423;49.224;12.074;2023-05-09T06:43:38;4.20;;;3.80;;
2840;SDS011;53423;49.224;12.074;2023-05-09T06:46:06;4.00;;;3.70;;
2840;SDS011;53423;49.224;12.074;2023-05-09T06:48:34;4.30;;;3.90;;
2840;SDS011;53423;49.224;12.074;2023-05-09T06:51:02;4.00;;;3.70;;
2840;SDS011;53423;49.224;12.074;2023-05-09T06:53:30;4.00;;;3.70;;
2840;SDS011;53423;49.224;12.074;2023-05-09T06:55:57;3.85;;;3.50;;
2840;SDS011;53423;49.224;12.074;2023-05-09T06:58:27;3.83;;;3.53;;
2840;SDS011;53423;49.224;12.074;2023-05-09T07:00:55;4.20;;;3.80;;
2840;SDS011;53423;49.224;12.074;2023-05-09T07:03:23;4.00;;;3.70;;
2840;SDS011;53423;49.224;12.074;2023-05-09T07:05:51;3.95;;;3.65;;
2840;SDS011;53423;49.224;12.074;2023-05-09T07:08:22;4.05;;;3.72;;
2840;SDS011;53423;49.224;12.074;2023-05-09T07:10:49;3.70;;;3.40;;
2840;SDS011;53423;49.224;12.074;2023-05-09T07:13:17;4.75;;;3.80;;
2840;SDS011;53423;49.224;12.074;2023-05-09T07:15:47;3.65;;;3.35;;
2840;SDS011;53423;49.224;12.074;2023-05-09T07:18:15;3.88;;;3.58;;
2840;SDS011;53423;49.224;12.074;2023-05-09T07:20:43;4.00;;;3.58;;
2840;SDS011;53423;49.224;12.074;2023-05-09T07:23:10;4.22;;;3.70;;
2840;SDS011;53423;49.224;12.074;2023-05-09T07:25:38;4.03;;;3.72;;
2840;SDS011;53423;49.224;12.074;2023-05-09T07:28:06;3.97;;;3.67;;
2840;SDS011;53423;49.224;12.074;2023-05-09T07:30:36;3.70;;;3.40;;
2840;SDS011;53423;49.224;12.074;2023-05-09T07:33:05;4.63;;;3.38;;
2840;SDS011;53423;49.224;12.074;2023-05-09T07:35:33;4.05;;;3.42;;
2840;SDS011;53423;49.224;12.074;2023-05-09T07:38:01;3.78;;;3.47;;
2840;SDS011;53423;49.224;12.074;2023-05-09T07:40:31;4.38;;;3.95;;
2840;SDS011;53423;49.224;12.074;2023-05-09T07:43:01;3.83;;;3.40;;
2840;SDS011;53423;49.224;12.074;2023-05-09T07:45:29;3.90;;;3.50;;
2840;SDS011;53423;49.224;12.074;2023-05-09T07:47:57;3.55;;;3.35;;
2840;SDS011;53423;49.224;12.074;2023-05-09T07:50:26;7.22;;;3.60;;
2840;SDS011;53423;49.224;12.074;2023-05-09T07:52:54;5.50;;;3.60;;
2840;SDS011;53423;49.224;12.074;2023-05-09T07:55:22;4.07;;;3.65;;
2840;SDS011;53423;49.224;12.074;2023-05-09T07:57:50;3.90;;;3.60;;
2840;SDS011;53423;49.224;12.074;2023-05-09T08:00:18;4.05;;;3.75;;
2840;SDS011;53423;49.224;12.074;2023-05-09T08:02:49;4.20;;;3.80;;
2840;SDS011;53423;49.224;12.074;2023-05-09T08:05:17;4.25;;;3.65;;
2840;SDS011;53423;49.224;12.074;2023-05-09T08:07:47;4.07;;;3.42;;
2840;SDS011;53423;49.224;12.074;2023-05-09T08:10:15;3.95;;;3.65;;
2840;SDS011;53423;49.224;12.074;2023-05-09T08:12:43;3.50;;;3.22;;
2840;SDS011;53423;49.224;12.074;2023-05-09T08:15:11;3.67;;;3.38;;
2840;SDS011;53423;49.224;12.074;2023-05-09T08:17:39;4.25;;;3.30;;
2840;SDS011;53423;49.224;12.074;2023-05-09T08:20:07;4.20;;;3.45;;
2840;SDS011;53423;49.224;12.074;2023-05-09T08:22:37;3.30;;;3.10;;
2840;SDS011;53423;49.224;12.074;2023-05-09T08:25:07;4.53;;;3.63;;
2840;SDS011;53423;49.224;12.074;2023-05-09T08:27:35;3.50;;;3.30;;
2840;SDS011;53423;49.224;12.074;2023-05-09T08:30:03;3.70;;;3.38;;
2840;SDS011;53423;49.224;12.074;2023-05-09T08:32:32;4.78;;;3.35;;
2840;SDS011;53423;49.224;12.074;2023-05-09T08:35:00;3.50;;;3.13;;
2840;SDS011;53423;49.224;12.074;2023-05-09T08:37:28;3.33;;;2.97;;
2840;SDS011;53423;49.224;12.074;2023-05-09T08:39:56;5.32;;;3.08;;
2840;SDS011;53423;49.224;12.074;2023-05-09T08:42:25;3.40;;;3.10;;
2840;SDS011;53423;49.224;12.074;2023-05-09T08:44:57;3.80;;;3.45;;
2840;SDS011;53423;49.224;12.074;2023-05-09T08:47:25;2.90;;;2.70;;
2840;SDS011;53423;49.224;12.074;2023-05-09T08:49:53;3.03;;;2.78;;
2840;SDS011;53423;49.224;12.074;2023-05-09T08:53:27;3.20;;;2.85;;
2840;SDS011;53423;49.224;12.074;2023-05-09T08:55:56;3.22;;;2.92;;
2840;SDS011;53423;49.224;12.074;2023-05-09T08:58:25;3.10;;;2.80;;
2840;SDS011;53423;49.224;12.074;2023-05-09T09:00:53;2.78;;;2.58;;
2840;SDS011;53423;49.224;12.074;2023-05-09T09:03:22;3.55;;;3.00;;
2840;SDS011;53423;49.224;12.074;2023-05-09T09:05:50;3.33;;;2.90;;
2840;SDS011;53423;49.224;12.074;2023-05-09T09:08:21;3.17;;;2.88;;
2840;SDS011;53423;49.224;12.074;2023-05-09T09:10:50;3.40;;;3.10;;
2840;SDS011;53423;49.224;12.074;2023-05-09T09:13:20;4.30;;;3.22;;
2840;SDS011;53423;49.224;12.074;2023-05-09T09:15:49;2.95;;;2.75;;
2840;SDS011;53423;49.224;12.074;2023-05-09T09:18:22;2.83;;;2.63;;
2840;SDS011;53423;49.224;12.074;2023-05-09T09:20:55;2.95;;;2.75;;
2840;SDS011;53423;49.224;12.074;2023-05-09T09:23:24;2.60;;;2.40;;
2840;SDS011;53423;49.224;12.074;2023-05-09T09:25:58;3.00;;;2.80;;
2840;SDS011;53423;49.224;12.074;2023-05-09T09:28:27;2.97;;;2.78;;
2840;SDS011;53423;49.224;12.074;2023-05-09T09:30:55;4.95;;;3.28;;
2840;SDS011;53423;49.224;12.074;2023-05-09T09:33:24;4.13;;;2.60;;
2840;SDS011;53423;49.224;12.074;2023-05-09T09:35:53;4.13;;;3.53;;
2840;SDS011;53423;49.224;12.074;2023-05-09T09:38:23;3.40;;;3.13;;
2840;SDS011;53423;49.224;12.074;2023-05-09T09:40:52;3.72;;;3.38;;
2840;SDS011;53423;49.224;12.074;2023-05-09T09:43:27;5.65;;;3.10;;
2840;SDS011;53423;49.224;12.074;2023-05-09T09:45:55;3.38;;;3.17;;
2840;SDS011;53423;49.224;12.074;2023-05-09T09:48:24;3.70;;;3.13;;
2840;SDS011;53423;49.224;12.074;2023-05-09T09:50:52;3.20;;;3.00;;
2840;SDS011;53423;49.224;12.074;2023-05-09T09:53:22;3.30;;;3.00;;
2840;SDS011;53423;49.224;12.074;2023-05-09T09:55:55;5.22;;;3.30;;
2840;SDS011;53423;49.224;12.074;2023-05-09T09:58:24;4.55;;;3.30;;
2840;SDS011;53423;49.224;12.074;2023-05-09T10:01:05;3.30;;;2.97;;
2840;SDS011;53423;49.224;12.074;2023-05-09T10:03:35;4.25;;;3.13;;
2840;SDS011;53423;49.224;12.074;2023-05-09T10:06:04;2.90;;;2.70;;
2840;SDS011;53423;49.224;12.074;2023-05-09T10:08:32;2.90;;;2.30;;
2840;SDS011;53423;49.224;12.074;2023-05-09T10:11:00;2.83;;;2.63;;
2840;SDS011;53423;49.224;12.074;2023-05-09T10:13:28;3.75;;;2.50;;
2840;SDS011;53423;49.224;12.074;2023-05-09T10:15:56;2.60;;;2.50;;
2840;SDS011;53423;49.224;12.074;2023-05-09T10:18:27;2.75;;;2.50;;
2840;SDS011;53423;49.224;12.074;2023-05-09T10:20:57;4.63;;;2.60;;
2840;SDS011;53423;49.224;12.074;2023-05-09T10:23:29;3.53;;;2.80;;
2840;SDS011;53423;49.224;12.074;2023-05-09T10:25:59;2.95;;;2.10;;
2840;SDS011;53423;49.224;12.074;2023-05-09T10:28:33;3.28;;;2.35;;
2840;SDS011;53423;49.224;12.074;2023-05-09T10:31:06;3.15;;;2.15;;
2840;SDS011;53423;49.224;12.074;2023-05-09T10:33:45;2.67;;;2.47;;
2840;SDS011;53423;49.224;12.074;2023-05-09T10:36:16;3.00;;;2.80;;
2840;SDS011;53423;49.224;12.074;2023-05-09T10:38:46;2.35;;;2.22;;
2840;SDS011;53423;49.224;12.074;2023-05-09T10:41:15;2.97;;;2.78;;
2840;SDS011;53423;49.224;12.074;2023-05-09T10:43:44;4.60;;;2.30;;
2840;SDS011;53423;49.224;12.074;2023-05-09T10:46:12;2.60;;;2.42;;
2840;SDS011;53423;49.224;12.074;2023-05-09T10:48:41;3.85;;;2.75;;
2840;SDS011;53423;49.224;12.074;2023-05-09T10:51:11;3.42;;;2.50;;
2840;SDS011;53423;49.224;12.074;2023-05-09T10:53:40;3.08;;;2.88;;
2840;SDS011;53423;49.224;12.074;2023-05-09T10:56:20;2.55;;;2.35;;
2840;SDS011;53423;49.224;12.074;2023-05-09T10:58:49;3.10;;;2.75;;
2840;SDS011;53423;49.224;12.074;2023-05-09T11:01:27;3.30;;;3.00;;
2840;SDS011;53423;49.224;12.074;2023-05-09T11:03:57;2.80;;;2.60;;
2840;SDS011;53423;49.224;12.074;2023-05-09T11:06:40;2.85;;;2.65;;
2840;SDS011;53423;49.224;12.074;2023-05-09T11:12:06;4.50;;;2.60;;
2840;SDS011;53423;49.224;12.074;2023-05-09T11:14:40;2.95;;;2.75;;
2840;SDS011;53423;49.224;12.074;2023-05-09T11:17:10;3.15;;;2.90;;
2840;SDS011;53423;49.224;12.074;2023-05-09T11:19:58;4.63;;;3.05;;
2840;SDS011;53423;49.224;12.074;2023-05-09T11:22:36;3.33;;;3.00;;
2840;SDS011;53423;49.224;12.074;2023-05-09T11:25:06;3.33;;;2.70;;
2840;SDS011;53423;49.224;12.074;2023-05-09T11:27:36;3.08;;;2.78;;
2840;SDS011;53423;49.224;12.074;2023-05-09T11:30:08;3.97;;;2.80;;
2840;SDS011;53423;49.224;12.074;2023-05-09T11:32:42;3.67;;;2.92;;
2840;SDS011;53423;49.224;12.074;2023-05-09T11:35:12;2.90;;;2.60;;
2840;SDS011;53423;49.224;12.074;2023-05-09T11:37:47;2.97;;;2.55;;
2840;SDS011;53423;49.224;12.074;2023-05-09T11:40:16;4.53;;;2.60;;
2840;SDS011;53423;49.224;12.074;2023-05-09T11:42:45;2.80;;;2.60;;
2840;SDS011;53423;49.224;12.074;2023-05-09T11:45:15;2.70;;;2.50;;
2840;SDS011;53423;49.224;12.074;2023-05-09T11:47:44;3.25;;;2.95;;
2840;SDS011;53423;49.224;12.074;2023-05-09T11:50:13;2.90;;;2.60;;
2840;SDS011;53423;49.224;12.074;2023-05-09T11:52:42;3.95;;;2.67;;
2840;SDS011;53423;49.224;12.074;2023-05-09T11:55:12;3.05;;;2.75;;
2840;SDS011;53423;49.224;12.074;2023-05-09T11:57:43;2.92;;;2.65;;
2840;SDS011;53423;49.224;12.074;2023-05-09T12:00:13;2.72;;;2.53;;
2840;SDS011;53423;49.224;12.074;2023-05-09T12:02:44;3.67;;;2.70;;
2840;SDS011;53423;49.224;12.074;2023-05-09T12:05:13;2.35;;;2.25;;
2840;SDS011;53423;49.224;12.074;2023-05-09T12:07:44;2.97;;;2.50;;
2840;SDS011;53423;49.224;12.074;2023-05-09T12:10:15;2.80;;;2.60;;
2840;SDS011;53423;49.224;12.074;2023-05-09T12:12:46;3.00;;;2.80;;
2840;SDS011;53423;49.224;12.074;2023-05-09T12:15:16;3.17;;;2.97;;
2840;SDS011;53423;49.224;12.074;2023-05-09T12:17:45;3.25;;;2.92;;
2840;SDS011;53423;49.224;12.074;2023-05-09T12:20:17;8.25;;;2.90;;
2840;SDS011;53423;49.224;12.074;2023-05-09T12:22:45;2.88;;;2.63;;
2840;SDS011;53423;49.224;12.074;2023-05-09T12:25:21;3.78;;;2.35;;
2840;SDS011;53423;49.224;12.074;2023-05-09T12:27:49;3.35;;;2.40;;
2840;SDS011;53423;49.224;12.074;2023-05-09T12:30:20;2.85;;;2.60;;
2840;SDS011;53423;49.224;12.074;2023-05-09T12:32:48;2.55;;;2.35;;
2840;SDS011;53423;49.224;12.074;2023-05-09T12:35:16;3.50;;;2.92;;
2840;SDS011;53423;49.224;12.074;2023-05-09T12:37:54;3.85;;;2.80;;
2840;SDS011;53423;49.224;12.074;2023-05-09T12:40:25;2.60;;;2.40;;
2840;SDS011;53423;49.224;12.074;2023-05-09T12:42:55;2.53;;;2.13;;
2840;SDS011;53423;49.224;12.074;2023-05-09T12:45:26;3.33;;;2.38;;
2840;SDS011;53423;49.224;12.074;2023-05-09T12:47:55;3.40;;;2.55;;
2840;SDS011;53423;49.224;12.074;2023-05-09T12:50:29;3.45;;;2.70;;
2840;SDS011;53423;49.224;12.074;2023-05-09T12:53:01;2.55;;;2.30;;
2840;SDS011;53423;49.224;12.074;2023-05-09T12:55:36;3.90;;;2.92;;
2840;SDS011;53423;49.224;12.074;2023-05-09T12:58:05;2.58;;;2.38;;
2840;SDS011;53423;49.224;12.074;2023-05-09T13:00:40;2.72;;;2.53;;
2840;SDS011;53423;49.224;12.074;2023-05-09T13:03:19;2.45;;;2.25;;
2840;SDS011;53423;49.224;12.074;2023-05-09T13:05:54;2.53;;;2.38;;
2840;SDS011;53423;49.224;12.074;2023-05-09T13:08:23;2.83;;;2.63;;
2840;SDS011;53423;49.224;12.074;2023-05-09T13:10:52;2.97;;;2.70;;
2840;SDS011;53423;49.224;12.074;2023-05-09T13:13:39;2.72;;;2.50;;
2840;SDS011;53423;49.224;12.074;2023-05-09T13:16:08;3.30;;;2.75;;
2840;SDS011;53423;49.224;12.074;2023-05-09T13:18:39;3.17;;;2.88;;
2840;SDS011;53423;49.224;12.074;2023-05-09T13:21:07;2.65;;;2.45;;
2840;SDS011;53423;49.224;12.074;2023-05-09T13:23:35;3.97;;;2.58;;
2840;SDS011;53423;49.224;12.074;2023-05-09T13:26:04;2.92;;;2.47;;
2840;SDS011;53423;49.224;12.074;2023-05-09T13:28:32;2.58;;;2.40;;
2840;SDS011;53423;49.224;12.074;2023-05-09T13:31:00;2.83;;;2.40;;
2840;SDS011;53423;49.224;12.074;2023-05-09T13:33:29;3.10;;;2.70;;
2840;SDS011;53423;49.224;12.074;2023-05-09T13:35:57;5.18;;;2.70;;
2840;SDS011;53423;49.224;12.074;2023-05-09T13:38:25;2.67;;;2.47;;
2840;SDS011;53423;49.224;12.074;2023-05-09T13:40:56;2.63;;;2.42;;
2840;SDS011;53423;49.224;12.074;2023-05-09T13:43:26;3.42;;;2.35;;
2840;SDS011;53423;49.224;12.074;2023-05-09T13:45:54;2.97;;;2.22;;
2840;SDS011;53423;49.224;12.074;2023-05-09T13:48:22;2.50;;;2.05;;
2840;SDS011;53423;49.224;12.074;2023-05-09T13:50:50;3.88;;;2.78;;
2840;SDS011;53423;49.224;12.074;2023-05-09T13:53:18;2.42;;;2.22;;
2840;SDS011;53423;49.224;12.074;2023-05-09T13:55:46;2.50;;;2.20;;
2840;SDS011;53423;49.224;12.074;2023-05-09T13:58:14;2.80;;;2.58;;
2840;SDS011;53423;49.224;12.074;2023-05-09T14:00:43;3.53;;;2.30;;
2840;SDS011;53423;49.224;12.074;2023-05-09T14:03:11;2.57;;;2.30;;
2840;SDS011;53423;49.224;12.074;2023-05-09T14:05:39;4.57;;;2.50;;
2840;SDS011;53423;49.224;12.074;2023-05-09T14:08:07;2.50;;;2.30;;
2840;SDS011;53423;49.224;12.074;2023-05-09T14:10:35;2.85;;;2.20;;
2840;SDS011;53423;49.224;12.074;2023-05-09T14:13:03;4.72;;;2.50;;
2840;SDS011;53423;49.224;12.074;2023-05-09T14:15:33;2.50;;;2.30;;
2840;SDS011;53423;49.224;12.074;2023-05-09T14:18:03;3.78;;;2.63;;
2840;SDS011;53423;49.224;12.074;2023-05-09T14:20:31;2.85;;;2.55;;
2840;SDS011;53423;49.224;12.074;2023-05-09T14:23:01;3.83;;;2.35;;
2840;SDS011;53423;49.224;12.074;2023-05-09T14:25:29;3.70;;;2.50;;
2840;SDS011;53423;49.224;12.074;2023-05-09T14:27:57;2.90;;;2.70;;
2840;SDS011;53423;49.224;12.074;2023-05-09T14:30:25;2.42;;;2.20;;
2840;SDS011;53423;49.224;12.074;2023-05-09T14:32:53;4.15;;;2.40;;
2840;SDS011;53423;49.224;12.074;2023-05-09T14:35:23;2.92;;;2.63;;
2840;SDS011;53423;49.224;12.074;2023-05-09T14:37:50;3.00;;;2.60;;
2840;SDS011;53423;49.224;12.074;2023-05-09T14:40:18;3.17;;;2.45;;
2840;SDS011;53423;49.224;12.074;2023-05-09T14:42:47;2.90;;;2.58;;
2840;SDS011;53423;49.224;12.074;2023-05-09T14:45:14;2.78;;;2.33;;
2840;SDS011;53423;49.224;12.074;2023-05-09T14:47:42;3.80;;;2.10;;
2840;SDS011;53423;49.224;12.074;2023-05-09T14:50:10;3.28;;;2.35;;
2840;SDS011;53423;49.224;12.074;2023-05-09T14:52:42;3.17;;;2.72;;
2840;SDS011;53423;49.224;12.074;2023-05-09T14:55:10;3.47;;;2.50;;
2840;SDS011;53423;49.224;12.074;2023-05-09T14:57:38;3.28;;;2.70;;
2840;SDS011;53423;49.224;12.074;2023-05-09T15:00:07;3.00;;;2.60;;
2840;SDS011;53423;49.224;12.074;2023-05-09T15:02:46;3.25;;;2.90;;
2840;SDS011;53423;49.224;12.074;2023-05-09T15:05:14;7.80;;;3.05;;